Tina-c — 2APY2 — position and weather

sailwx.info

Track history (hours):
 
Tides and Currents Weather Stations Pressure Air Temp Water Temp Dewpoint Dewpoint Depression Visibility Wind Speed Wind Dir Waves Ship Positions

Tina-c

Last reported at 2016-Feb-06 13:33 UTC. Time now 2016-Feb-06 13:36 UTC.
Position N 38°40' W 009°14'.

Length 99 m; draft 4.1 m.

Type: Cargo ship. MMSI: 235061987.

Date/timePositionNaut miles runAvg speedWind from/ knotsBaromVisibWave heightAir tempDewpointWater temp
2016-Feb-06 13:33N 38°40' W 009°14'3 2.7
2016-Feb-06 12:33N 38°41' W 009°18'8 8.2
2016-Feb-06 11:33N 38°37' W 009°27'8 8.4
2016-Feb-06 10:33N 38°37' W 009°38'10 9.3
2016-Feb-06 09:31N 38°36' W 009°50'8 8.5
2016-Feb-06 08:33N 38°35' W 010°01'8 8.1
2016-Feb-06 07:33N 38°42' W 010°05'10 9.5
2016-Feb-06 06:33N 38°52' W 010°05'10 9.9
2016-Feb-06 05:34N 39°02' W 010°05'10 9.6
2016-Feb-06 04:31N 39°12' W 010°05'1110.7
2016-Feb-06 03:30N 39°22' W 010°05'1010.9
2016-Feb-06 02:33N 39°33' W 010°05'1111.5
2016-Feb-06 01:34N 39°44' W 010°05'1111.3
2016-Feb-06 00:33N 39°56' W 010°05'1110.7
2016-Feb-05 23:30N 40°07' W 010°05'1111.5
2016-Feb-05 22:31N 40°18' W 010°05'1211.6
2016-Feb-05 21:31N 40°30' W 010°05'1111.5
2016-Feb-05 20:33N 40°41' W 010°04'1211.7
2016-Feb-05 19:30N 40°53' W 010°04'1111.8
2016-Feb-05 18:33N 41°04' W 010°04'1212.2
2016-Feb-05 17:33N 41°16' W 010°05'1211.6
2016-Feb-05 16:30N 41°29' W 010°05'1211.5
2016-Feb-05 15:28N 41°41' W 010°05'1111.4
2016-Feb-05 14:30N 41°52' W 010°05'  
2016-Feb-01 07:19N 43°23' W 001°56'358 6.9
2016-Jan-30 03:28N 41°54' W 009°47'9 9.9
2016-Jan-30 02:34N 41°45' W 009°47'10 9.1
2016-Jan-30 01:30N 41°36' W 009°48'9 9.0
2016-Jan-30 00:33N 41°27' W 009°48'9 9.4
2016-Jan-29 23:33N 41°18' W 009°48'9 9.5
2016-Jan-29 22:33N 41°08' W 009°48'10 9.2
2016-Jan-29 21:30N 40°59' W 009°48'9 9.4
2016-Jan-29 20:30N 40°49' W 009°49'9 9.0
2016-Jan-29 19:33N 40°41' W 009°49'9 9.5
2016-Jan-29 18:34N 40°31' W 009°49'9 8.9
2016-Jan-29 17:31N 40°22' W 009°49'9 9.3
2016-Jan-29 16:31N 40°13' W 009°49'8 8.8
2016-Jan-29 15:33N 40°04' W 009°50'10 9.1
2016-Jan-29 14:28N 39°54' W 009°50'8 8.7
2016-Jan-29 13:34N 39°47' W 009°50'9 8.4
2016-Jan-29 12:32N 39°38' W 009°50'8 7.5
2016-Jan-29 11:32N 39°30' W 009°50'9 8.6
2016-Jan-29 10:28N 39°21' W 009°50'7 7.4
2016-Jan-29 09:33N 39°14' W 009°50'8 7.7
2016-Jan-29 08:33N 39°07' W 009°50'8 7.7
2016-Jan-29 07:33N 38°59' W 009°51'8 7.8
2016-Jan-29 06:33N 38°51' W 009°51'8 7.7
2016-Jan-29 05:33N 38°44' W 009°51'7 7.3
2016-Jan-29 04:33N 38°36' W 009°49'7 7.2
2016-Jan-29 03:33N 38°29' W 009°47'7 7.3
2016-Jan-29 02:33N 38°22' W 009°45'8 7.9
2016-Jan-29 01:33N 38°15' W 009°42'8 7.6
2016-Jan-29 00:33N 38°07' W 009°40'8 7.9
2016-Jan-28 23:33N 37°59' W 009°38'9 8.6
2016-Jan-28 22:33N 37°51' W 009°36'9 8.9
2016-Jan-28 21:33N 37°42' W 009°33'9 9.1
2016-Jan-28 20:33N 37°34' W 009°30'9 9.3
2016-Jan-28 19:34N 37°25' W 009°28'10 9.8
2016-Jan-28 18:33N 37°15' W 009°25'1010.1
2016-Jan-28 17:33N 37°05' W 009°23'1010.0
2016-Jan-28 16:31N 36°55' W 009°20'11 9.8
2016-Jan-28 15:22N 36°46' W 009°11'910.1
2016-Jan-28 14:28N 36°42' W 009°00'1010.5
2016-Jan-28 13:28N 36°39' W 008°48'1010.1
2016-Jan-28 12:31N 36°36' W 008°37'1110.7
2016-Jan-28 11:31N 36°33' W 008°24'1110.7
2016-Jan-28 10:30N 36°29' W 008°12'12810.7
2016-Jan-27 22:33N 35°58' W 005°38'9 8.6
2016-Jan-27 21:33N 35°59' W 005°28'9 9.0
2016-Jan-27 20:33N 35°54' W 005°19'0 0.4
2016-Jan-27 19:31N 35°54' W 005°18'0 0.0
2016-Jan-27 18:31N 35°54' W 005°18'0 0.2
2016-Jan-27 16:15N 35°54' W 005°19'2 2.3
2016-Jan-27 15:33N 35°55' W 005°20'0 0.0
2016-Jan-27 14:33N 35°55' W 005°20'4 3.7
2016-Jan-27 13:33N 35°56' W 005°16'  
Track history (hours):
 
Tides and Currents Weather Stations Pressure Air Temp Water Temp Dewpoint Dewpoint Depression Visibility Wind Speed Wind Dir Waves Ship Positions

Tina-c

Last reported at 2016-Feb-06 13:33 UTC. Time now 2016-Feb-06 13:36 UTC.
Position N 38°40' W 009°14'.

Length 99 m; draft 4.1 m.

Type: Cargo ship. MMSI: 235061987.

Date/timePositionNaut miles runAvg speedWind from/ knotsBaromVisibWave heightAir tempDewpointWater temp
2016-Feb-06 13:33N 38°40' W 009°14'3 2.7
2016-Feb-06 12:33N 38°41' W 009°18'8 8.2
2016-Feb-06 11:33N 38°37' W 009°27'8 8.4
2016-Feb-06 10:33N 38°37' W 009°38'10 9.3
2016-Feb-06 09:31N 38°36' W 009°50'8 8.5
2016-Feb-06 08:33N 38°35' W 010°01'8 8.1
2016-Feb-06 07:33N 38°42' W 010°05'10 9.5
2016-Feb-06 06:33N 38°52' W 010°05'10 9.9
2016-Feb-06 05:34N 39°02' W 010°05'10 9.6
2016-Feb-06 04:31N 39°12' W 010°05'1110.7
2016-Feb-06 03:30N 39°22' W 010°05'1010.9
2016-Feb-06 02:33N 39°33' W 010°05'1111.5
2016-Feb-06 01:34N 39°44' W 010°05'1111.3
2016-Feb-06 00:33N 39°56' W 010°05'1110.7
2016-Feb-05 23:30N 40°07' W 010°05'1111.5
2016-Feb-05 22:31N 40°18' W 010°05'1211.6
2016-Feb-05 21:31N 40°30' W 010°05'1111.5
2016-Feb-05 20:33N 40°41' W 010°04'1211.7
2016-Feb-05 19:30N 40°53' W 010°04'1111.8
2016-Feb-05 18:33N 41°04' W 010°04'1212.2
2016-Feb-05 17:33N 41°16' W 010°05'1211.6
2016-Feb-05 16:30N 41°29' W 010°05'1211.5
2016-Feb-05 15:28N 41°41' W 010°05'1111.4
2016-Feb-05 14:30N 41°52' W 010°05'  
2016-Feb-01 07:19N 43°23' W 001°56'358 6.9
2016-Jan-30 03:28N 41°54' W 009°47'9 9.9
2016-Jan-30 02:34N 41°45' W 009°47'10 9.1
2016-Jan-30 01:30N 41°36' W 009°48'9 9.0
2016-Jan-30 00:33N 41°27' W 009°48'9 9.4
2016-Jan-29 23:33N 41°18' W 009°48'9 9.5
2016-Jan-29 22:33N 41°08' W 009°48'10 9.2
2016-Jan-29 21:30N 40°59' W 009°48'9 9.4
2016-Jan-29 20:30N 40°49' W 009°49'9 9.0
2016-Jan-29 19:33N 40°41' W 009°49'9 9.5
2016-Jan-29 18:34N 40°31' W 009°49'9 8.9
2016-Jan-29 17:31N 40°22' W 009°49'9 9.3
2016-Jan-29 16:31N 40°13' W 009°49'8 8.8
2016-Jan-29 15:33N 40°04' W 009°50'10 9.1
2016-Jan-29 14:28N 39°54' W 009°50'8 8.7
2016-Jan-29 13:34N 39°47' W 009°50'9 8.4
2016-Jan-29 12:32N 39°38' W 009°50'8 7.5
2016-Jan-29 11:32N 39°30' W 009°50'9 8.6
2016-Jan-29 10:28N 39°21' W 009°50'7 7.4
2016-Jan-29 09:33N 39°14' W 009°50'8 7.7
2016-Jan-29 08:33N 39°07' W 009°50'8 7.7
2016-Jan-29 07:33N 38°59' W 009°51'8 7.8
2016-Jan-29 06:33N 38°51' W 009°51'8 7.7
2016-Jan-29 05:33N 38°44' W 009°51'7 7.3
2016-Jan-29 04:33N 38°36' W 009°49'7 7.2
2016-Jan-29 03:33N 38°29' W 009°47'7 7.3
2016-Jan-29 02:33N 38°22' W 009°45'8 7.9
2016-Jan-29 01:33N 38°15' W 009°42'8 7.6
2016-Jan-29 00:33N 38°07' W 009°40'8 7.9
2016-Jan-28 23:33N 37°59' W 009°38'9 8.6
2016-Jan-28 22:33N 37°51' W 009°36'9 8.9
2016-Jan-28 21:33N 37°42' W 009°33'9 9.1
2016-Jan-28 20:33N 37°34' W 009°30'9 9.3
2016-Jan-28 19:34N 37°25' W 009°28'10 9.8
2016-Jan-28 18:33N 37°15' W 009°25'1010.1
2016-Jan-28 17:33N 37°05' W 009°23'1010.0
2016-Jan-28 16:31N 36°55' W 009°20'11 9.8
2016-Jan-28 15:22N 36°46' W 009°11'910.1
2016-Jan-28 14:28N 36°42' W 009°00'1010.5
2016-Jan-28 13:28N 36°39' W 008°48'1010.1
2016-Jan-28 12:31N 36°36' W 008°37'1110.7
2016-Jan-28 11:31N 36°33' W 008°24'1110.7
2016-Jan-28 10:30N 36°29' W 008°12'12810.7
2016-Jan-27 22:33N 35°58' W 005°38'9 8.6
2016-Jan-27 21:33N 35°59' W 005°28'9 9.0
2016-Jan-27 20:33N 35°54' W 005°19'0 0.4
2016-Jan-27 19:31N 35°54' W 005°18'0 0.0
2016-Jan-27 18:31N 35°54' W 005°18'0 0.2
2016-Jan-27 16:15N 35°54' W 005°19'2 2.3
2016-Jan-27 15:33N 35°55' W 005°20'0 0.0
2016-Jan-27 14:33N 35°55' W 005°20'4 3.7
2016-Jan-27 13:33N 35°56' W 005°16'  

Dump ship's entire track history